Time;durP1;ratioP1;P1;durP2;ratioP2;P2;SDS_P1;SDS_P2;PMS_P1;PMS_P2;Temp;Humidity;BMP_temperature;BMP_pressure;BME280_temperature;BME280_humidity;BME280_pressure;Samples;Min_cycle;Max_cycle;Signal;HPM_P1;HPM_P2
2023/01/09 00:01:14;;;;;;;5.03;4.50;;;;;;;;;;5012439;28;20239;-80
2023/01/09 00:03:41;;;;;;;4.23;3.87;;;;;;;;;;5030057;28;20490;-80
2023/01/09 00:06:08;;;;;;;4.27;3.87;;;;;;;;;;5032047;28;20778;-80
2023/01/09 00:08:36;;;;;;;4.07;3.77;;;;;;;;;;5032539;28;20217;-80
2023/01/09 00:11:03;;;;;;;8.93;3.83;;;;;;;;;;5031885;28;20259;-80
2023/01/09 00:13:31;;;;;;;4.77;3.90;;;;;;;;;;5032244;28;20206;-80
2023/01/09 00:15:59;;;;;;;3.90;3.50;;;;;;;;;;5031895;28;20226;-81
2023/01/09 00:18:26;;;;;;;3.70;3.40;;;;;;;;;;5032244;28;20252;-81
2023/01/09 00:20:53;;;;;;;4.90;4.50;;;;;;;;;;5031521;28;20241;-80
2023/01/09 00:23:20;;;;;;;3.47;3.17;;;;;;;;;;5032095;28;20212;-80
2023/01/09 00:25:49;;;;;;;4.30;3.70;;;;;;;;;;5031847;28;20241;-80
2023/01/09 00:28:16;;;;;;;3.67;3.37;;;;;;;;;;5032222;28;20268;-81
2023/01/09 00:30:43;;;;;;;4.90;3.90;;;;;;;;;;5031641;28;20288;-81
2023/01/09 00:33:10;;;;;;;3.67;3.33;;;;;;;;;;5032278;28;20210;-81
2023/01/09 00:35:37;;;;;;;4.00;3.47;;;;;;;;;;5031538;28;20695;-81
2023/01/09 00:38:04;;;;;;;4.10;3.20;;;;;;;;;;5032154;28;20221;-80
2023/01/09 00:40:31;;;;;;;3.00;2.80;;;;;;;;;;5031560;28;20230;-81
2023/01/09 00:43:01;;;;;;;3.13;2.93;;;;;;;;;;5031705;28;20700;-81
2023/01/09 00:45:29;;;;;;;2.87;2.67;;;;;;;;;;5031403;28;20717;-81
2023/01/09 00:47:58;;;;;;;3.07;2.77;;;;;;;;;;5032007;28;20219;-81
2023/01/09 00:52:55;;;;;;;5.17;2.80;;;;;;;;;;5028410;28;20221;-79
2023/01/09 00:55:22;;;;;;;2.43;2.33;;;;;;;;;;5012020;28;20239;-79
2023/01/09 00:57:49;;;;;;;2.57;2.37;;;;;;;;;;5012462;28;20600;-79
2023/01/09 01:00:18;;;;;;;2.57;2.37;;;;;;;;;;5011738;28;20245;-79
2023/01/09 01:02:45;;;;;;;2.23;2.13;;;;;;;;;;5022353;28;20233;-79
2023/01/09 01:07:57;;;;;;;1.73;1.70;;;;;;;;;;5031881;28;20781;-78
2023/01/09 01:10:25;;;;;;;2.00;1.87;;;;;;;;;;5031313;28;20720;-79
2023/01/09 01:12:53;;;;;;;2.17;2.07;;;;;;;;;;5031574;28;20210;-79
2023/01/09 01:15:22;;;;;;;1.60;1.60;;;;;;;;;;5032253;28;20233;-79
2023/01/09 01:17:49;;;;;;;1.90;1.80;;;;;;;;;;5035925;28;20213;-79
2023/01/09 01:20:17;;;;;;;1.80;1.70;;;;;;;;;;5035500;28;20238;-79
2023/01/09 01:22:44;;;;;;;1.57;1.57;;;;;;;;;;5035451;28;20245;-79
2023/01/09 01:25:12;;;;;;;1.70;1.70;;;;;;;;;;5035535;28;20230;-79
2023/01/09 01:27:39;;;;;;;2.00;1.90;;;;;;;;;;5035865;28;20678;-79
2023/01/09 01:30:07;;;;;;;2.60;2.13;;;;;;;;;;5035561;28;20257;-79
2023/01/09 01:32:36;;;;;;;1.80;1.70;;;;;;;;;;5035138;28;20234;-78
2023/01/09 01:35:03;;;;;;;1.70;1.60;;;;;;;;;;5035043;28;20586;-80
2023/01/09 01:37:30;;;;;;;1.77;1.70;;;;;;;;;;5035523;28;20218;-78
2023/01/09 01:39:57;;;;;;;1.80;1.70;;;;;;;;;;5034799;28;20207;-79
2023/01/09 01:42:24;;;;;;;1.70;1.60;;;;;;;;;;5035229;28;20226;-78
2023/01/09 01:44:59;;;;;;;1.67;1.67;;;;;;;;;;5035674;28;20203;-79
2023/01/09 01:47:29;;;;;;;1.50;1.50;;;;;;;;;;5035110;28;20221;-78
2023/01/09 01:49:58;;;;;;;2.13;2.00;;;;;;;;;;5035034;28;20551;-80
2023/01/09 01:52:25;;;;;;;1.70;1.70;;;;;;;;;;5034981;28;20226;-78
2023/01/09 01:54:53;;;;;;;1.93;1.83;;;;;;;;;;5035132;28;20237;-78
2023/01/09 01:57:20;;;;;;;2.00;1.90;;;;;;;;;;5034777;28;20243;-78
2023/01/09 01:59:50;;;;;;;2.00;1.90;;;;;;;;;;5035175;28;20215;-78
2023/01/09 02:02:17;;;;;;;2.10;2.00;;;;;;;;;;5027943;28;20662;-78
2023/01/09 02:04:45;;;;;;;2.13;2.03;;;;;;;;;;5034330;28;20286;-78
2023/01/09 02:07:14;;;;;;;2.20;2.10;;;;;;;;;;5031911;28;20230;-78
2023/01/09 02:09:44;;;;;;;1.97;1.87;;;;;;;;;;5030511;28;20214;-79
2023/01/09 02:12:15;;;;;;;2.37;2.27;;;;;;;;;;5014398;28;20711;-78
2023/01/09 02:14:42;;;;;;;3.13;2.50;;;;;;;;;;5015080;28;20227;-78
2023/01/09 02:17:13;;;;;;;2.33;2.23;;;;;;;;;;5014525;28;20235;-79
2023/01/09 02:19:58;;;;;;;2.00;1.90;;;;;;;;;;5014997;28;20207;-79
2023/01/09 02:22:32;;;;;;;2.30;2.20;;;;;;;;;;5014292;28;20223;-79
2023/01/09 02:25:14;;;;;;;3.03;2.83;;;;;;;;;;5014390;28;20207;-79
2023/01/09 02:27:56;;;;;;;2.37;2.27;;;;;;;;;;5030330;28;20207;-78
2023/01/09 02:30:39;;;;;;;3.40;2.73;;;;;;;;;;5032623;28;20226;-77
2023/01/09 02:33:14;;;;;;;2.50;2.40;;;;;;;;;;5034310;28;20211;-78
2023/01/09 02:35:50;;;;;;;2.57;2.37;;;;;;;;;;5033945;28;20233;-78
2023/01/09 02:38:22;;;;;;;2.20;2.10;;;;;;;;;;5034601;28;20604;-78
2023/01/09 02:40:53;;;;;;;2.00;1.90;;;;;;;;;;5033974;28;20235;-77
2023/01/09 02:43:20;;;;;;;2.63;2.43;;;;;;;;;;5034254;28;20558;-77
2023/01/09 02:45:48;;;;;;;2.80;2.60;;;;;;;;;;5034097;28;20226;-77
2023/01/09 02:48:15;;;;;;;2.87;2.63;;;;;;;;;;5034264;28;20202;-77
2023/01/09 02:50:46;;;;;;;2.80;2.60;;;;;;;;;;5033956;28;20234;-77
2023/01/09 02:53:24;;;;;;;2.93;2.73;;;;;;;;;;5034011;28;20229;-77
2023/01/09 02:56:02;;;;;;;2.97;2.77;;;;;;;;;;5033650;28;20234;-77
2023/01/09 02:58:40;;;;;;;2.90;2.70;;;;;;;;;;5034390;28;20226;-77
2023/01/09 03:01:14;;;;;;;2.47;2.37;;;;;;;;;;5033620;28;20239;-77
2023/01/09 03:03:48;;;;;;;2.33;2.13;;;;;;;;;;5014894;28;20274;-77
2023/01/09 03:06:18;;;;;;;2.40;2.30;;;;;;;;;;5013827;28;20338;-77
2023/01/09 03:08:47;;;;;;;2.63;2.50;;;;;;;;;;5014284;28;20210;-78
2023/01/09 03:11:14;;;;;;;2.20;2.10;;;;;;;;;;5013405;28;20715;-77
2023/01/09 03:13:43;;;;;;;2.90;2.50;;;;;;;;;;5013887;28;20230;-77
2023/01/09 03:16:14;;;;;;;2.50;2.30;;;;;;;;;;5013376;28;20255;-77
2023/01/09 03:18:41;;;;;;;2.80;2.60;;;;;;;;;;5014071;28;20207;-77
2023/01/09 03:21:09;;;;;;;6.90;2.57;;;;;;;;;;5013294;28;20247;-77
2023/01/09 03:23:46;;;;;;;2.77;2.57;;;;;;;;;;5013948;28;20581;-77
2023/01/09 03:26:13;;;;;;;2.47;2.37;;;;;;;;;;5013326;28;20245;-77
2023/01/09 03:28:40;;;;;;;2.60;2.40;;;;;;;;;;5013647;28;20218;-77
2023/01/09 03:31:07;;;;;;;2.60;2.40;;;;;;;;;;5012985;28;20319;-77
2023/01/09 03:33:35;;;;;;;2.70;2.50;;;;;;;;;;5013461;28;20207;-77
2023/01/09 03:36:03;;;;;;;2.43;2.33;;;;;;;;;;5013174;28;20231;-77
2023/01/09 03:38:30;;;;;;;2.47;2.27;;;;;;;;;;5013082;28;20220;-77
2023/01/09 03:40:57;;;;;;;2.73;2.53;;;;;;;;;;5012812;28;20239;-77
2023/01/09 03:43:24;;;;;;;2.50;2.33;;;;;;;;;;5013208;28;20215;-77
2023/01/09 03:45:51;;;;;;;3.37;2.53;;;;;;;;;;5012913;28;20234;-77
2023/01/09 03:48:18;;;;;;;2.43;2.10;;;;;;;;;;5013286;28;20203;-77
2023/01/09 03:50:48;;;;;;;2.53;2.27;;;;;;;;;;5012683;28;20249;-78
2023/01/09 03:53:15;;;;;;;2.57;2.37;;;;;;;;;;5013279;28;20234;-77
2023/01/09 03:55:44;;;;;;;2.70;2.50;;;;;;;;;;5012729;28;20242;-78
2023/01/09 03:58:11;;;;;;;2.73;2.53;;;;;;;;;;5013178;28;20207;-77
2023/01/09 04:00:39;;;;;;;2.17;2.07;;;;;;;;;;5012623;28;20238;-77
2023/01/09 04:03:06;;;;;;;2.87;2.67;;;;;;;;;;5012941;28;20211;-78
2023/01/09 04:05:33;;;;;;;3.20;3.00;;;;;;;;;;5012675;28;20238;-77
2023/01/09 04:08:01;;;;;;;3.27;2.77;;;;;;;;;;5013079;28;20218;-77
2023/01/09 04:10:28;;;;;;;3.07;2.87;;;;;;;;;;5012726;28;20238;-78
2023/01/09 04:12:56;;;;;;;3.30;3.10;;;;;;;;;;5012752;28;20203;-77
2023/01/09 04:15:23;;;;;;;2.80;2.60;;;;;;;;;;5012362;28;20234;-78
2023/01/09 04:17:50;;;;;;;2.53;2.40;;;;;;;;;;5013031;28;20207;-78
2023/01/09 04:20:17;;;;;;;2.30;2.10;;;;;;;;;;5012580;28;20246;-78
2023/01/09 04:22:44;;;;;;;2.13;1.97;;;;;;;;;;5012495;28;20227;-78
2023/01/09 04:25:13;;;;;;;2.60;2.50;;;;;;;;;;5012371;28;20659;-78
2023/01/09 04:27:40;;;;;;;2.67;2.47;;;;;;;;;;5012683;28;20202;-77
2023/01/09 04:30:08;;;;;;;3.53;2.30;;;;;;;;;;5012196;28;20203;-78
2023/01/09 04:32:35;;;;;;;2.00;1.77;;;;;;;;;;5012385;28;20239;-77
2023/01/09 04:35:02;;;;;;;2.10;2.00;;;;;;;;;;5012085;28;20216;-77
2023/01/09 04:37:29;;;;;;;2.40;2.20;;;;;;;;;;5012617;28;20207;-77
2023/01/09 04:39:56;;;;;;;1.80;1.70;;;;;;;;;;5012230;28;20211;-77
2023/01/09 04:42:24;;;;;;;2.00;1.73;;;;;;;;;;5012537;28;20227;-77
2023/01/09 04:44:52;;;;;;;1.93;1.83;;;;;;;;;;5012381;28;20203;-77
2023/01/09 04:47:20;;;;;;;1.63;1.60;;;;;;;;;;5012050;28;20224;-77
2023/01/09 04:49:47;;;;;;;1.87;1.77;;;;;;;;;;5012341;28;20211;-77
2023/01/09 04:52:14;;;;;;;2.50;1.60;;;;;;;;;;5011375;28;20243;-77
2023/01/09 04:54:41;;;;;;;1.77;1.77;;;;;;;;;;5012258;28;20206;-77
2023/01/09 04:57:08;;;;;;;1.77;1.60;;;;;;;;;;5011846;28;20243;-77
2023/01/09 04:59:36;;;;;;;1.60;1.50;;;;;;;;;;5012335;28;20214;-77
2023/01/09 05:02:03;;;;;;;1.60;1.50;;;;;;;;;;5011587;28;20239;-77
2023/01/09 05:04:30;;;;;;;1.50;1.50;;;;;;;;;;5012098;28;20713;-77
2023/01/09 05:06:58;;;;;;;1.50;1.50;;;;;;;;;;5011639;28;20250;-77
2023/01/09 05:09:25;;;;;;;1.50;1.40;;;;;;;;;;5012204;28;20207;-77
2023/01/09 05:11:52;;;;;;;3.20;1.40;;;;;;;;;;5011522;28;20247;-77
2023/01/09 05:14:19;;;;;;;1.70;1.60;;;;;;;;;;5012001;28;20214;-77
2023/01/09 05:16:48;;;;;;;1.57;1.47;;;;;;;;;;5011551;28;20235;-77
2023/01/09 05:19:15;;;;;;;1.30;1.30;;;;;;;;;;5011906;28;20204;-77
2023/01/09 05:21:42;;;;;;;1.27;1.27;;;;;;;;;;5011629;28;20278;-77
2023/01/09 05:24:09;;;;;;;1.80;1.70;;;;;;;;;;5011745;28;20222;-77
2023/01/09 05:26:36;;;;;;;1.40;1.40;;;;;;;;;;5011611;28;20253;-77
2023/01/09 05:29:04;;;;;;;2.27;1.30;;;;;;;;;;5012122;28;20699;-77
2023/01/09 05:31:31;;;;;;;1.53;1.53;;;;;;;;;;5011484;28;20243;-77
2023/01/09 05:33:59;;;;;;;1.60;1.50;;;;;;;;;;5011684;28;20215;-77
2023/01/09 05:36:27;;;;;;;2.00;1.60;;;;;;;;;;5011462;28;20267;-76
2023/01/09 05:38:56;;;;;;;1.60;1.60;;;;;;;;;;5011699;28;20211;-77
2023/01/09 05:41:24;;;;;;;1.63;1.53;;;;;;;;;;5011408;28;20239;-77
2023/01/09 05:43:51;;;;;;;1.50;1.47;;;;;;;;;;5011501;28;20391;-76
2023/01/09 05:46:18;;;;;;;2.00;1.70;;;;;;;;;;5011558;28;20231;-76
2023/01/09 05:48:45;;;;;;;2.43;2.23;;;;;;;;;;5011879;28;20581;-76
2023/01/09 05:51:14;;;;;;;1.97;1.87;;;;;;;;;;5010834;28;20239;-76
2023/01/09 05:53:41;;;;;;;1.40;1.40;;;;;;;;;;5011444;28;20211;-76
2023/01/09 05:56:08;;;;;;;1.83;1.73;;;;;;;;;;5011047;28;20242;-76
2023/01/09 05:58:35;;;;;;;2.30;1.60;;;;;;;;;;5011716;28;20200;-77
2023/01/09 06:01:02;;;;;;;1.47;1.47;;;;;;;;;;5010916;28;20262;-76
2023/01/09 06:03:29;;;;;;;1.73;1.43;;;;;;;;;;5030591;28;20546;-76
2023/01/09 06:05:56;;;;;;;1.80;1.70;;;;;;;;;;5034457;28;20223;-76
2023/01/09 06:08:25;;;;;;;2.43;2.23;;;;;;;;;;5035153;28;20222;-76
2023/01/09 06:10:52;;;;;;;2.37;1.70;;;;;;;;;;5034240;28;20261;-75
2023/01/09 06:13:19;;;;;;;1.40;1.40;;;;;;;;;;5034524;28;20674;-75
2023/01/09 06:15:47;;;;;;;1.70;1.60;;;;;;;;;;5034310;28;20235;-76
2023/01/09 06:18:14;;;;;;;1.83;1.73;;;;;;;;;;5034612;28;20215;-75
2023/01/09 06:20:42;;;;;;;1.73;1.60;;;;;;;;;;5034246;28;20230;-76
2023/01/09 06:23:09;;;;;;;2.37;2.17;;;;;;;;;;5034407;28;20203;-75
2023/01/09 06:25:37;;;;;;;2.33;1.70;;;;;;;;;;5034447;28;20231;-76
2023/01/09 06:28:04;;;;;;;2.00;1.40;;;;;;;;;;5034458;28;20681;-75
2023/01/09 06:30:32;;;;;;;1.60;1.50;;;;;;;;;;5034215;28;20238;-76
2023/01/09 06:32:59;;;;;;;2.60;1.80;;;;;;;;;;5034230;28;20222;-75
2023/01/09 06:35:26;;;;;;;1.50;1.50;;;;;;;;;;5034409;28;20230;-76
2023/01/09 06:37:53;;;;;;;1.10;1.10;;;;;;;;;;5034400;28;20234;-75
2023/01/09 06:40:21;;;;;;;1.90;1.80;;;;;;;;;;5034069;28;20234;-76
2023/01/09 06:42:49;;;;;;;2.10;1.67;;;;;;;;;;5034074;28;20263;-76
2023/01/09 06:45:17;;;;;;;1.70;1.60;;;;;;;;;;5033856;28;20309;-76
2023/01/09 06:47:44;;;;;;;1.77;1.67;;;;;;;;;;5034393;28;20206;-75
2023/01/09 06:50:11;;;;;;;3.70;2.10;;;;;;;;;;5033572;28;20230;-75
2023/01/09 06:52:39;;;;;;;3.47;1.90;;;;;;;;;;5034066;28;20726;-76
2023/01/09 06:55:07;;;;;;;2.87;1.67;;;;;;;;;;5033492;28;20210;-77
2023/01/09 06:57:34;;;;;;;1.90;1.73;;;;;;;;;;5034170;28;20226;-76
2023/01/09 07:00:03;;;;;;;2.93;1.80;;;;;;;;;;5033284;28;20686;-77
2023/01/09 07:02:30;;;;;;;1.90;1.50;;;;;;;;;;5025176;28;20227;-76
2023/01/09 07:04:57;;;;;;;2.67;1.47;;;;;;;;;;5013567;28;20564;-77
2023/01/09 07:07:24;;;;;;;1.90;1.80;;;;;;;;;;5014245;28;20204;-76
2023/01/09 07:09:51;;;;;;;3.93;1.90;;;;;;;;;;5013887;28;20211;-76
2023/01/09 07:12:18;;;;;;;4.10;1.80;;;;;;;;;;5013368;28;20235;-76
2023/01/09 07:14:45;;;;;;;2.53;2.20;;;;;;;;;;5013885;28;20211;-76
2023/01/09 07:17:14;;;;;;;3.63;2.80;;;;;;;;;;5013214;28;20243;-76
2023/01/09 07:19:41;;;;;;;2.13;1.93;;;;;;;;;;5013835;28;20202;-76
2023/01/09 07:22:08;;;;;;;1.47;1.40;;;;;;;;;;5013064;28;20739;-76
2023/01/09 07:24:35;;;;;;;3.13;1.63;;;;;;;;;;5013602;28;20234;-76
2023/01/09 07:27:02;;;;;;;5.77;1.87;;;;;;;;;;5013368;28;20238;-76
2023/01/09 07:29:29;;;;;;;2.97;2.00;;;;;;;;;;5013692;28;20219;-76
2023/01/09 07:31:56;;;;;;;2.33;2.10;;;;;;;;;;5012984;28;20239;-77
2023/01/09 07:34:25;;;;;;;3.20;2.17;;;;;;;;;;5013330;28;20206;-76
2023/01/09 07:36:52;;;;;;;2.30;2.00;;;;;;;;;;5012893;28;20243;-76
2023/01/09 07:39:19;;;;;;;4.27;2.17;;;;;;;;;;5013227;28;20207;-76
2023/01/09 07:41:46;;;;;;;4.70;1.90;;;;;;;;;;5012964;28;20246;-77
2023/01/09 07:44:13;;;;;;;4.43;1.80;;;;;;;;;;5013029;28;20219;-76
2023/01/09 07:46:41;;;;;;;2.57;2.37;;;;;;;;;;5012914;28;20231;-76
2023/01/09 07:49:08;;;;;;;3.63;2.53;;;;;;;;;;5013146;28;20215;-76
2023/01/09 07:51:37;;;;;;;4.10;2.07;;;;;;;;;;5012567;28;20250;-76
2023/01/09 07:54:05;;;;;;;3.57;2.37;;;;;;;;;;5012764;28;20218;-76
2023/01/09 07:56:32;;;;;;;2.03;1.90;;;;;;;;;;5012388;28;20741;-76
2023/01/09 07:58:59;;;;;;;1.83;1.73;;;;;;;;;;5013233;28;20211;-76
2023/01/09 08:01:26;;;;;;;5.70;2.40;;;;;;;;;;5012548;28;20247;-76
2023/01/09 08:03:53;;;;;;;5.93;3.13;;;;;;;;;;5012636;28;20211;-76
2023/01/09 08:06:20;;;;;;;7.47;3.43;;;;;;;;;;5012431;28;20231;-76
2023/01/09 08:08:48;;;;;;;3.30;2.50;;;;;;;;;;5012865;28;20215;-76
2023/01/09 08:11:16;;;;;;;4.50;2.80;;;;;;;;;;5012487;28;20644;-76
2023/01/09 08:13:43;;;;;;;7.50;4.53;;;;;;;;;;5012548;28;20199;-76
2023/01/09 08:16:10;;;;;;;4.47;3.10;;;;;;;;;;5012194;28;20235;-76
2023/01/09 08:18:37;;;;;;;4.07;3.23;;;;;;;;;;5012737;28;20203;-76
2023/01/09 08:21:04;;;;;;;11.63;4.47;;;;;;;;;;5012054;28;20250;-76
2023/01/09 08:23:31;;;;;;;5.40;2.80;;;;;;;;;;5012496;28;20218;-77
2023/01/09 08:25:59;;;;;;;7.83;3.83;;;;;;;;;;5011523;28;20231;-76
2023/01/09 08:28:26;;;;;;;1.70;1.60;;;;;;;;;;5012597;28;20210;-76
2023/01/09 08:30:53;;;;;;;2.47;2.10;;;;;;;;;;5012173;28;20239;-76
2023/01/09 08:33:20;;;;;;;3.20;2.97;;;;;;;;;;5012287;28;20208;-76
2023/01/09 08:35:47;;;;;;;4.07;2.47;;;;;;;;;;5011780;28;20239;-76
2023/01/09 08:38:15;;;;;;;5.97;3.67;;;;;;;;;;5012028;28;20242;-76
2023/01/09 08:40:42;;;;;;;6.57;3.50;;;;;;;;;;5011811;28;20237;-77
2023/01/09 08:48:40;;;;;;;4.33;2.43;;;;;;;;;;5012345;28;20206;-76
2023/01/09 08:51:07;;;;;;;4.37;1.57;;;;;;;;;;5011528;28;20247;-76
2023/01/09 08:53:34;;;;;;;3.17;2.10;;;;;;;;;;5012051;28;20211;-76
2023/01/09 08:56:01;;;;;;;4.87;1.97;;;;;;;;;;5011438;28;20250;-76
2023/01/09 08:58:29;;;;;;;9.57;4.93;;;;;;;;;;5012207;28;20226;-76
2023/01/09 09:00:57;;;;;;;4.23;2.10;;;;;;;;;;5011478;28;20231;-76
2023/01/09 09:03:24;;;;;;;3.43;1.70;;;;;;;;;;5027860;28;20580;-76
2023/01/09 09:05:51;;;;;;;2.27;1.50;;;;;;;;;;5031500;28;20234;-77
2023/01/09 09:08:19;;;;;;;5.23;2.10;;;;;;;;;;5031645;28;20686;-76
2023/01/09 09:10:46;;;;;;;1.70;1.60;;;;;;;;;;5031368;28;20241;-76
2023/01/09 09:13:13;;;;;;;2.90;1.90;;;;;;;;;;5031386;28;20583;-76
2023/01/09 09:15:41;;;;;;;2.60;1.63;;;;;;;;;;5031362;28;20234;-76
2023/01/09 09:18:08;;;;;;;1.80;1.70;;;;;;;;;;5031415;28;20813;-76
2023/01/09 09:20:36;;;;;;;2.73;1.87;;;;;;;;;;5031189;28;20681;-76
2023/01/09 09:23:04;;;;;;;3.80;2.03;;;;;;;;;;5031265;28;20211;-76
2023/01/09 09:25:31;;;;;;;3.77;1.97;;;;;;;;;;5031038;28;20709;-76
2023/01/09 09:27:59;;;;;;;4.77;2.10;;;;;;;;;;5031432;28;20261;-77
2023/01/09 09:30:27;;;;;;;2.67;1.60;;;;;;;;;;5030963;28;20234;-77
2023/01/09 09:32:55;;;;;;;5.60;1.97;;;;;;;;;;5031222;28;20203;-76
2023/01/09 09:35:22;;;;;;;2.33;2.00;;;;;;;;;;5031028;28;20226;-77
2023/01/09 09:37:57;;;;;;;2.97;1.90;;;;;;;;;;5033202;28;20226;-76
2023/01/09 09:40:31;;;;;;;1.97;1.80;;;;;;;;;;5035115;28;20237;-76
2023/01/09 09:46:00;;;;;;;2.87;1.93;;;;;;;;;;5034905;28;20825;-76
2023/01/09 09:48:33;;;;;;;4.07;2.43;;;;;;;;;;5035354;28;20557;-76
2023/01/09 09:51:13;;;;;;;5.23;2.27;;;;;;;;;;5034626;28;20241;-76
2023/01/09 09:53:43;;;;;;;3.63;2.00;;;;;;;;;;5035031;28;20301;-77
2023/01/09 09:56:11;;;;;;;3.13;2.00;;;;;;;;;;5034742;28;20249;-76
2023/01/09 09:58:39;;;;;;;6.77;2.80;;;;;;;;;;5035007;28;20231;-76
2023/01/09 10:01:07;;;;;;;2.43;1.80;;;;;;;;;;5034450;28;20741;-76
2023/01/09 10:03:37;;;;;;;1.50;1.50;;;;;;;;;;5034901;28;20202;-76
2023/01/09 10:06:06;;;;;;;1.50;1.40;;;;;;;;;;5034278;28;20771;-76
2023/01/09 10:08:37;;;;;;;1.70;1.60;;;;;;;;;;5034859;28;20199;-76
2023/01/09 10:11:05;;;;;;;4.30;2.07;;;;;;;;;;5034421;28;20242;-76
2023/01/09 10:16:24;;;;;;;2.27;1.77;;;;;;;;;;5034366;28;20233;-76
2023/01/09 10:18:59;;;;;;;3.17;2.10;;;;;;;;;;5034659;28;20600;-76
2023/01/09 10:21:29;;;;;;;4.13;1.70;;;;;;;;;;5034260;28;20261;-77
2023/01/09 10:24:01;;;;;;;2.33;1.80;;;;;;;;;;5034561;28;20199;-77
2023/01/09 10:26:31;;;;;;;6.50;3.13;;;;;;;;;;5034201;28;20243;-76
2023/01/09 10:29:11;;;;;;;2.43;2.23;;;;;;;;;;5034882;28;20237;-76
2023/01/09 10:31:41;;;;;;;2.33;2.13;;;;;;;;;;5034293;28;20238;-76
2023/01/09 10:34:14;;;;;;;9.73;1.67;;;;;;;;;;5034170;28;20210;-76
2023/01/09 10:36:54;;;;;;;1.87;1.60;;;;;;;;;;5033861;28;20246;-76
2023/01/09 10:39:23;;;;;;;1.73;1.63;;;;;;;;;;5034497;28;20210;-76
2023/01/09 10:41:53;;;;;;;2.60;1.50;;;;;;;;;;5033699;28;20247;-77
2023/01/09 10:44:24;;;;;;;2.87;1.97;;;;;;;;;;5034244;28;20210;-77
2023/01/09 10:46:53;;;;;;;3.47;1.70;;;;;;;;;;5033837;28;20235;-77
2023/01/09 10:49:23;;;;;;;1.67;1.50;;;;;;;;;;5033692;28;20294;-76
2023/01/09 10:51:51;;;;;;;2.70;1.60;;;;;;;;;;5033455;28;20719;-76
2023/01/09 10:54:21;;;;;;;2.07;1.67;;;;;;;;;;5033993;28;20203;-77
2023/01/09 10:56:51;;;;;;;3.13;2.30;;;;;;;;;;5033398;28;20231;-77
2023/01/09 10:59:18;;;;;;;3.57;1.50;;;;;;;;;;5034308;28;20218;-77
2023/01/09 11:01:45;;;;;;;2.20;1.50;;;;;;;;;;5030772;28;20234;-77
2023/01/09 11:04:19;;;;;;;2.20;1.70;;;;;;;;;;5013916;28;20215;-76
2023/01/09 11:06:49;;;;;;;1.80;1.30;;;;;;;;;;5013618;28;20262;-77
2023/01/09 11:09:16;;;;;;;1.30;1.30;;;;;;;;;;5013743;28;20644;-77
2023/01/09 11:11:44;;;;;;;2.97;1.37;;;;;;;;;;5013553;28;20235;-77
2023/01/09 11:14:15;;;;;;;1.80;1.70;;;;;;;;;;5013653;28;20211;-77
2023/01/09 11:16:51;;;;;;;1.50;1.40;;;;;;;;;;5013473;28;20723;-77
2023/01/09 11:19:18;;;;;;;2.00;1.50;;;;;;;;;;5013580;28;20318;-77
2023/01/09 11:21:46;;;;;;;1.93;1.40;;;;;;;;;;5013233;28;20362;-76
2023/01/09 11:24:28;;;;;;;2.87;1.40;;;;;;;;;;5013518;28;20207;-77
2023/01/09 11:27:11;;;;;;;2.40;1.50;;;;;;;;;;5013220;28;20231;-76
2023/01/09 11:29:38;;;;;;;4.20;1.70;;;;;;;;;;5013773;28;20671;-77
2023/01/09 11:32:06;;;;;;;1.50;1.40;;;;;;;;;;5012822;28;20291;-76
2023/01/09 11:34:34;;;;;;;2.43;1.50;;;;;;;;;;5013463;28;20224;-76
2023/01/09 11:37:03;;;;;;;1.30;1.30;;;;;;;;;;5013029;28;20586;-76
2023/01/09 11:39:33;;;;;;;1.90;1.80;;;;;;;;;;5013454;28;20227;-76
2023/01/09 11:42:02;;;;;;;1.60;1.50;;;;;;;;;;5012948;28;20616;-76
2023/01/09 11:44:30;;;;;;;1.73;1.60;;;;;;;;;;5013567;28;20207;-76
2023/01/09 11:46:57;;;;;;;1.27;1.27;;;;;;;;;;5012760;28;20618;-76
2023/01/09 11:49:25;;;;;;;3.97;1.80;;;;;;;;;;5013361;28;20211;-77
2023/01/09 11:52:05;;;;;;;3.30;2.10;;;;;;;;;;5012341;28;20242;-77
2023/01/09 11:54:35;;;;;;;2.40;1.80;;;;;;;;;;5013189;28;20261;-76
2023/01/09 11:57:02;;;;;;;2.07;1.70;;;;;;;;;;5012535;28;20338;-76
2023/01/09 11:59:31;;;;;;;4.43;1.47;;;;;;;;;;5012389;28;20227;-76
2023/01/09 12:02:06;;;;;;;2.13;1.73;;;;;;;;;;5016222;28;20232;-77
2023/01/09 12:04:36;;;;;;;2.20;1.63;;;;;;;;;;5032801;28;20249;-76
2023/01/09 12:07:12;;;;;;;1.47;1.37;;;;;;;;;;5032324;28;20242;-76
2023/01/09 12:09:44;;;;;;;2.00;1.80;;;;;;;;;;5032495;28;20206;-77
2023/01/09 12:12:15;;;;;;;1.87;1.63;;;;;;;;;;5031866;28;20334;-76
2023/01/09 12:14:49;;;;;;;2.37;2.00;;;;;;;;;;5032623;28;20214;-77
2023/01/09 12:17:28;;;;;;;3.73;1.57;;;;;;;;;;5032014;28;20257;-77
2023/01/09 12:20:05;;;;;;;2.40;2.20;;;;;;;;;;5032209;28;20191;-77
2023/01/09 12:22:37;;;;;;;1.43;1.40;;;;;;;;;;5032402;28;20237;-76
2023/01/09 12:25:13;;;;;;;2.17;1.83;;;;;;;;;;5031716;28;20222;-76
2023/01/09 12:27:55;;;;;;;2.40;1.53;;;;;;;;;;5032450;28;20202;-76
2023/01/09 12:30:29;;;;;;;1.50;1.47;;;;;;;;;;5031902;28;20242;-77
2023/01/09 12:33:04;;;;;;;1.93;1.83;;;;;;;;;;5031801;28;20667;-76
2023/01/09 12:35:34;;;;;;;1.90;1.70;;;;;;;;;;5031790;28;20709;-77
2023/01/09 12:38:07;;;;;;;3.47;2.37;;;;;;;;;;5032094;28;20246;-76
2023/01/09 12:40:40;;;;;;;2.13;2.00;;;;;;;;;;5031497;28;20709;-77
2023/01/09 12:43:12;;;;;;;2.07;1.77;;;;;;;;;;5031758;28;20745;-77
2023/01/09 12:45:46;;;;;;;1.80;1.70;;;;;;;;;;5031750;28;20238;-77
2023/01/09 12:48:20;;;;;;;6.73;1.80;;;;;;;;;;5031711;28;20277;-77
2023/01/09 12:53:19;;;;;;;2.40;2.20;;;;;;;;;;5035112;28;20229;-82
2023/01/09 12:55:51;;;;;;;4.07;2.13;;;;;;;;;;5034998;28;20588;-82
2023/01/09 12:58:21;;;;;;;3.23;2.40;;;;;;;;;;5032559;28;20219;-83
2023/01/09 13:00:50;;;;;;;2.83;2.57;;;;;;;;;;5031768;28;20654;-82
2023/01/09 13:03:20;;;;;;;4.67;2.90;;;;;;;;;;5031992;28;20207;-82
2023/01/09 13:05:47;;;;;;;2.47;1.80;;;;;;;;;;5031556;28;20772;-82
2023/01/09 13:08:17;;;;;;;1.97;1.87;;;;;;;;;;5031989;28;20207;-82
2023/01/09 13:10:46;;;;;;;2.03;1.90;;;;;;;;;;5031148;28;20706;-82
2023/01/09 13:13:18;;;;;;;1.60;1.50;;;;;;;;;;5031790;28;20603;-82
2023/01/09 13:15:48;;;;;;;4.00;1.77;;;;;;;;;;5031209;28;20238;-82
2023/01/09 13:18:19;;;;;;;2.17;1.93;;;;;;;;;;5032173;28;20230;-82
2023/01/09 13:20:48;;;;;;;3.53;2.00;;;;;;;;;;5031276;28;20249;-81
2023/01/09 13:23:18;;;;;;;2.23;1.73;;;;;;;;;;5031761;28;20214;-82
2023/01/09 13:25:47;;;;;;;1.87;1.70;;;;;;;;;;5031469;28;20230;-82
2023/01/09 13:28:18;;;;;;;2.03;1.83;;;;;;;;;;5031712;28;20206;-82
2023/01/09 13:30:54;;;;;;;1.70;1.60;;;;;;;;;;5031709;28;20356;-81
2023/01/09 13:33:22;;;;;;;3.10;2.00;;;;;;;;;;5031540;28;20589;-82
2023/01/09 13:35:50;;;;;;;3.13;2.33;;;;;;;;;;5031138;28;20237;-82
2023/01/09 13:38:18;;;;;;;4.43;2.27;;;;;;;;;;5031685;28;20245;-82
2023/01/09 13:40:45;;;;;;;2.17;1.83;;;;;;;;;;5031379;28;20230;-81
2023/01/09 13:43:13;;;;;;;1.67;1.57;;;;;;;;;;5032018;28;20213;-83
2023/01/09 13:45:42;;;;;;;1.60;1.60;;;;;;;;;;5031656;28;20234;-82
2023/01/09 13:48:24;;;;;;;1.83;1.73;;;;;;;;;;5032461;28;20256;-82
2023/01/09 13:50:54;;;;;;;3.13;2.20;;;;;;;;;;5031563;28;20227;-82
2023/01/09 13:53:45;;;;;;;4.13;2.40;;;;;;;;;;5032255;28;20276;-82
2023/01/09 13:56:13;;;;;;;2.00;1.90;;;;;;;;;;5016488;28;20242;-82
2023/01/09 13:59:01;;;;;;;1.87;1.77;;;;;;;;;;5031914;28;20317;-82
2023/01/09 14:01:43;;;;;;;4.97;2.40;;;;;;;;;;5031374;28;20245;-83
2023/01/09 14:04:29;;;;;;;7.07;2.93;;;;;;;;;;5031458;28;20241;-82
2023/01/09 14:07:16;;;;;;;1.80;1.57;;;;;;;;;;5031230;28;20234;-82
2023/01/09 14:09:46;;;;;;;1.30;1.30;;;;;;;;;;5031729;28;20203;-82
2023/01/09 14:12:15;;;;;;;1.70;1.60;;;;;;;;;;5030797;28;20249;-82
2023/01/09 14:14:45;;;;;;;1.63;1.53;;;;;;;;;;5032231;28;20215;-83
2023/01/09 14:17:24;;;;;;;2.67;2.10;;;;;;;;;;5030762;28;20238;-83
2023/01/09 14:19:54;;;;;;;1.90;1.47;;;;;;;;;;5033267;28;20718;-82
2023/01/09 14:22:24;;;;;;;1.90;1.70;;;;;;;;;;5031958;28;20241;-82
2023/01/09 14:24:52;;;;;;;1.67;1.57;;;;;;;;;;5035585;28;20693;-83
2023/01/09 14:27:37;;;;;;;1.67;1.57;;;;;;;;;;5036036;28;20230;-82
2023/01/09 14:30:17;;;;;;;1.50;1.50;;;;;;;;;;5036482;28;20210;-82
2023/01/09 14:32:46;;;;;;;1.40;1.40;;;;;;;;;;5035631;28;20237;-82
2023/01/09 14:35:20;;;;;;;2.53;2.00;;;;;;;;;;5034577;28;20266;-82
2023/01/09 14:37:50;;;;;;;2.47;2.23;;;;;;;;;;5034860;28;20211;-83
2023/01/09 14:40:21;;;;;;;2.60;2.30;;;;;;;;;;5034457;28;20265;-82
2023/01/09 14:42:52;;;;;;;2.23;2.10;;;;;;;;;;5034672;28;20300;-83
2023/01/09 14:45:21;;;;;;;2.40;1.70;;;;;;;;;;5034108;28;20237;-82
2023/01/09 14:47:52;;;;;;;2.20;2.00;;;;;;;;;;5035158;28;20229;-83
2023/01/09 14:50:24;;;;;;;1.60;1.50;;;;;;;;;;5034241;28;20234;-82
2023/01/09 14:52:52;;;;;;;2.27;1.60;;;;;;;;;;5034104;28;20243;-83
2023/01/09 14:55:23;;;;;;;3.13;2.10;;;;;;;;;;5034024;28;20242;-82
2023/01/09 14:57:53;;;;;;;3.90;2.73;;;;;;;;;;5034588;28;20548;-82
2023/01/09 15:00:22;;;;;;;2.40;1.70;;;;;;;;;;5033920;28;20249;-82
2023/01/09 15:02:52;;;;;;;1.80;1.70;;;;;;;;;;5033833;28;20233;-83
2023/01/09 15:05:21;;;;;;;2.10;1.97;;;;;;;;;;5033521;28;20551;-82
2023/01/09 15:07:50;;;;;;;2.43;1.90;;;;;;;;;;5034136;28;20593;-82
2023/01/09 15:10:20;;;;;;;1.50;1.50;;;;;;;;;;5033784;28;20237;-82
2023/01/09 15:12:48;;;;;;;1.90;1.80;;;;;;;;;;5033813;28;20249;-82
2023/01/09 15:15:16;;;;;;;1.87;1.60;;;;;;;;;;5034603;28;20254;-82